createdAt,value
2023-05-16T00:01:30.548Z,101429.81
2023-05-16T00:06:33.254Z,101435.41
2023-05-16T00:11:35.991Z,101432.25
2023-05-16T00:16:41.687Z,101445.19
2023-05-16T00:21:44.977Z,101433.44
2023-05-16T00:26:47.604Z,101440.09
2023-05-16T00:31:52.137Z,101434.03
2023-05-16T00:36:55.224Z,101451.78
2023-05-16T00:41:57.922Z,101442.28
2023-05-16T00:47:02.737Z,101440.97
2023-05-16T00:52:06.106Z,101450.25
2023-05-16T00:57:09.129Z,101451.69
2023-05-16T01:02:14.178Z,101433.97
2023-05-16T01:07:17.044Z,101445.63
2023-05-16T01:12:31.027Z,101451.41
2023-05-16T01:17:46.887Z,101442.97
2023-05-16T01:23:06.611Z,101459.16
2023-05-16T01:28:11.562Z,101464.19
2023-05-16T01:33:14.375Z,101480.31
2023-05-16T01:38:25.798Z,101482.97
2023-05-16T01:43:35.373Z,101475.00
2023-05-16T01:48:44.258Z,101482.94
2023-05-16T01:53:47.639Z,101491.28
2023-05-16T01:58:54.592Z,101492.03
2023-05-16T02:03:57.621Z,101502.53
2023-05-16T02:09:00.191Z,101506.66
2023-05-16T02:14:04.543Z,101515.69
2023-05-16T02:19:07.169Z,101520.78
2023-05-16T02:24:09.792Z,101527.44
2023-05-16T02:29:15.053Z,101526.22
2023-05-16T02:34:17.673Z,101530.22
2023-05-16T02:39:20.537Z,101532.28
2023-05-16T02:44:27.575Z,101539.06
2023-05-16T02:49:30.196Z,101555.59
2023-05-16T02:54:33.576Z,101565.38
2023-05-16T02:59:37.561Z,101563.63
2023-05-16T03:04:40.514Z,101572.69
2023-05-16T03:09:43.118Z,101576.69
2023-05-16T03:14:47.018Z,101591.78
2023-05-16T03:19:50.239Z,101585.41
2023-05-16T03:24:52.770Z,101590.84
2023-05-16T03:29:56.653Z,101583.75
2023-05-16T03:34:59.313Z,101600.78
2023-05-16T03:40:04.966Z,101550.34
2023-05-16T03:45:09.942Z,101601.00
2023-05-16T03:50:12.865Z,101611.56
2023-05-16T03:55:16.434Z,101624.19
2023-05-16T04:00:20.414Z,101619.13
2023-05-16T04:05:23.213Z,101580.88
2023-05-16T04:10:25.869Z,101609.38
2023-05-16T04:15:30.306Z,101640.88
2023-05-16T04:20:33.146Z,101647.72
2023-05-16T04:25:36.049Z,101559.31
2023-05-16T04:30:39.978Z,101647.03
2023-05-16T04:35:42.997Z,101657.34
2023-05-16T04:40:45.722Z,101663.91
2023-05-16T04:45:50.620Z,101664.59
2023-05-16T04:50:53.392Z,101671.13
2023-05-16T04:55:55.971Z,101677.72
2023-05-16T05:01:01.906Z,101674.28
2023-05-16T05:06:04.806Z,101686.63
2023-05-16T05:11:07.364Z,101691.19
2023-05-16T05:16:11.638Z,101688.38
2023-05-16T05:21:14.266Z,101698.19
2023-05-16T05:26:16.899Z,101707.53
2023-05-16T05:31:20.884Z,101702.28
2023-05-16T05:36:23.866Z,101717.59
2023-05-16T05:41:27.165Z,101715.03
2023-05-16T05:46:31.524Z,101710.09
2023-05-16T05:51:34.263Z,101719.47
2023-05-16T05:56:36.971Z,101730.03
2023-05-16T06:01:41.324Z,101728.91
2023-05-16T06:06:43.867Z,101739.50
2023-05-16T06:11:46.474Z,101741.31
2023-05-16T06:16:50.481Z,101743.19
2023-05-16T06:21:53.096Z,101740.13
2023-05-16T06:26:55.625Z,101745.59
2023-05-16T06:31:59.723Z,101755.41
2023-05-16T06:37:03.617Z,101756.69
2023-05-16T06:42:07.026Z,101760.69
2023-05-16T06:47:11.133Z,101759.16
2023-05-16T06:52:13.741Z,101768.34
2023-05-16T06:57:17.894Z,101771.66
2023-05-16T07:02:22.343Z,101765.09
2023-05-16T07:07:25.071Z,101768.66
2023-05-16T07:12:27.695Z,101765.88
2023-05-16T07:17:31.703Z,101758.00
2023-05-16T07:22:34.344Z,101775.53
2023-05-16T07:27:36.914Z,101772.47
2023-05-16T07:32:41.115Z,101778.69
2023-05-16T07:37:43.960Z,101755.69
2023-05-16T07:42:46.522Z,101784.34
2023-05-16T08:23:47.553Z,101784.03
2023-05-16T08:28:50.451Z,101801.34
2023-05-16T08:33:53.023Z,101784.50
2023-05-16T08:38:59.435Z,101795.72
2023-05-16T08:44:02.216Z,101794.31
2023-05-16T08:49:07.923Z,101792.63
2023-05-16T08:54:14.136Z,101788.59
2023-05-16T08:59:17.177Z,101791.81
2023-05-16T09:04:20.563Z,101788.00
2023-05-16T09:09:24.890Z,101785.56
2023-05-16T09:14:27.471Z,101797.06
2023-05-16T09:19:38.109Z,101796.94
2023-05-16T09:24:43.247Z,101793.84
2023-05-16T09:29:51.289Z,101789.09
2023-05-16T09:34:57.654Z,101790.94
2023-05-16T09:40:01.927Z,101776.38
2023-05-16T09:45:05.156Z,101789.03
2023-05-16T09:50:09.095Z,101778.44
2023-05-16T09:55:13.072Z,101791.78
2023-05-16T10:00:16.620Z,101796.34
2023-05-16T10:05:19.454Z,101798.81
2023-05-16T10:10:24.534Z,101799.75
2023-05-16T10:15:29.270Z,101798.19
2023-05-16T10:20:32.796Z,101800.13
2023-05-16T10:25:41.666Z,101800.13
2023-05-16T10:30:46.238Z,101795.75
2023-05-16T10:35:49.008Z,101797.72
2023-05-16T10:40:53.671Z,101789.00
2023-05-16T10:45:57.262Z,101785.38
2023-05-16T10:51:00.483Z,101782.22
2023-05-16T10:56:10.107Z,101773.97
2023-05-16T11:01:17.035Z,101781.59
2023-05-16T11:06:24.835Z,101778.72
2023-05-16T11:11:45.574Z,101788.16
2023-05-16T11:16:52.462Z,101798.88
2023-05-16T11:22:08.971Z,101803.25
2023-05-16T11:27:15.150Z,101801.81
2023-05-16T11:32:22.029Z,101803.94
2023-05-16T11:37:24.807Z,101799.06
2023-05-16T11:42:33.862Z,101781.59
2023-05-16T11:47:38.344Z,101789.31
2023-05-16T11:52:41.644Z,101794.88
2023-05-16T11:57:45.583Z,101795.38
2023-05-16T12:02:50.894Z,101798.03
2023-05-16T12:07:54.969Z,101789.69
2023-05-16T12:12:59.150Z,101784.72
2023-05-16T12:18:02.466Z,101778.84
2023-05-16T12:23:05.526Z,101787.50
2023-05-16T12:28:10.035Z,101783.47
2023-05-16T12:33:14.060Z,101742.22
2023-05-16T12:38:18.212Z,101772.78
2023-05-16T12:43:23.735Z,101772.41
2023-05-16T12:48:35.712Z,101736.81
2023-05-16T12:53:43.399Z,101777.81
2023-05-16T12:58:52.165Z,101767.81
2023-05-16T13:03:54.845Z,101701.47
2023-05-16T13:08:57.678Z,101780.16
2023-05-16T13:14:01.620Z,101782.13
2023-05-16T13:19:05.303Z,101787.88
2023-05-16T13:24:08.059Z,101786.75
2023-05-16T13:29:12.247Z,101790.56
2023-05-16T13:34:14.810Z,101798.72
2023-05-16T13:39:17.938Z,101807.47
2023-05-16T13:44:22.483Z,101803.81
2023-05-16T13:49:25.389Z,101791.97
2023-05-16T13:54:28.315Z,101767.09
2023-05-16T13:59:56.782Z,101797.41
2023-05-16T14:04:54.987Z,101806.50
2023-05-16T14:09:57.604Z,101805.53
2023-05-16T14:15:01.595Z,101809.91
2023-05-16T14:20:08.528Z,101822.06
2023-05-16T14:25:11.199Z,101826.56
2023-05-16T14:30:15.480Z,101823.06
2023-05-16T14:35:18.225Z,101828.50
2023-05-16T14:40:21.601Z,101830.47
2023-05-16T14:45:25.840Z,101834.47
2023-05-16T14:50:28.931Z,101839.00
2023-05-16T14:55:31.815Z,101839.97
2023-05-16T15:00:36.146Z,101847.81
2023-05-16T15:05:40.632Z,101852.31
2023-05-16T15:10:44.599Z,101852.72
2023-05-16T15:15:48.898Z,101783.34
2023-05-16T15:20:53.159Z,101820.53
2023-05-16T15:25:56.109Z,101874.56
2023-05-16T15:31:00.248Z,101876.59
2023-05-16T15:36:03.344Z,101880.97
2023-05-16T15:41:18.562Z,101885.88
2023-05-16T15:46:32.970Z,101880.91
2023-05-16T15:51:36.545Z,101885.94
2023-05-16T15:56:39.801Z,101887.56
2023-05-16T16:01:44.294Z,101811.44
2023-05-16T16:06:47.767Z,101890.53
2023-05-16T16:11:56.444Z,101890.97
2023-05-16T16:17:00.809Z,101895.38
2023-05-16T16:22:03.694Z,101894.53
2023-05-16T16:27:07.215Z,101889.88
2023-05-16T16:32:11.732Z,101898.00
2023-05-16T16:37:14.965Z,101889.66
2023-05-16T16:42:17.693Z,101893.47
2023-05-16T16:47:23.055Z,101901.72
2023-05-16T16:52:26.237Z,101905.84
2023-05-16T16:57:29.720Z,101907.78
2023-05-16T17:02:33.813Z,101911.38
2023-05-16T17:07:36.540Z,101916.00
2023-05-16T17:12:46.034Z,101925.97
2023-05-16T17:17:49.985Z,101929.47
2023-05-16T17:22:52.593Z,101928.72
2023-05-16T17:27:55.910Z,101939.75
2023-05-16T17:33:00.324Z,101936.63
2023-05-16T17:38:03.469Z,101949.00
2023-05-16T17:43:06.705Z,101937.22
2023-05-16T17:48:11.342Z,101922.91
2023-05-16T17:53:14.269Z,101938.25
2023-05-16T17:58:17.935Z,101947.03
2023-05-16T18:03:22.290Z,101948.38
2023-05-16T18:08:25.226Z,101951.41
2023-05-16T18:13:29.036Z,101947.31
2023-05-16T18:18:37.131Z,101948.38
2023-05-16T18:23:39.791Z,101945.81
2023-05-16T18:28:43.493Z,101957.03
2023-05-16T18:33:47.904Z,101958.53
2023-05-16T18:38:51.070Z,101958.19
2023-05-16T18:43:54.244Z,101957.88
2023-05-16T18:48:58.541Z,101955.41
2023-05-16T18:54:01.440Z,101955.94
2023-05-16T18:59:04.274Z,101968.09
2023-05-16T19:04:08.766Z,101964.56
2023-05-16T19:09:12.309Z,101979.09
2023-05-16T19:14:14.957Z,101975.19
2023-05-16T19:19:19.276Z,101977.50
2023-05-16T19:24:22.485Z,101989.50
2023-05-16T19:29:25.303Z,101995.69
2023-05-16T19:34:29.507Z,101991.00
2023-05-16T19:39:32.253Z,102002.59
2023-05-16T19:44:35.018Z,102000.38
2023-05-16T19:49:39.084Z,102011.03
2023-05-16T19:54:41.763Z,102001.88
2023-05-16T19:59:44.335Z,102006.91
2023-05-16T20:04:48.387Z,102008.81
2023-05-16T20:09:51.390Z,102023.06
2023-05-16T20:14:56.684Z,102031.16
2023-05-16T20:20:01.490Z,102028.69
2023-05-16T20:25:04.600Z,102031.34
2023-05-16T20:30:08.741Z,102033.16
2023-05-16T20:35:14.676Z,102038.81
2023-05-16T20:40:17.343Z,102037.69
2023-05-16T20:45:20.452Z,102043.47
2023-05-16T20:50:24.379Z,102045.69
2023-05-16T20:55:27.120Z,102047.66
2023-05-16T21:00:29.971Z,102040.81
2023-05-16T21:05:36.184Z,102047.25
2023-05-16T21:10:39.149Z,102039.44
2023-05-16T21:15:41.776Z,102043.41
2023-05-16T21:20:45.839Z,102046.56
2023-05-16T21:25:48.461Z,102044.41
2023-05-16T21:30:51.055Z,102049.84
2023-05-16T21:35:55.053Z,102052.13
2023-05-16T21:40:57.982Z,102054.72
2023-05-16T21:46:00.576Z,102057.00
2023-05-16T21:51:04.814Z,102058.13
2023-05-16T21:56:08.117Z,102067.44
2023-05-16T22:01:10.945Z,102071.09
2023-05-16T22:06:14.885Z,102069.69
2023-05-16T22:11:17.619Z,102073.72
2023-05-16T22:16:20.350Z,102076.66
2023-05-16T22:21:24.330Z,102071.22
2023-05-16T22:26:26.953Z,102083.78
2023-05-16T22:31:29.630Z,102082.69
2023-05-16T22:36:33.591Z,102073.16
2023-05-16T22:41:36.673Z,102071.75
2023-05-16T22:46:39.338Z,102082.44
2023-05-16T22:51:43.284Z,102080.72
2023-05-16T22:56:46.414Z,102087.63
2023-05-16T23:01:49.052Z,102078.53
2023-05-16T23:06:53.156Z,102077.59
2023-05-16T23:11:55.733Z,102077.06
2023-05-16T23:16:58.331Z,102084.25
2023-05-16T23:22:03.333Z,102086.91
2023-05-16T23:27:06.330Z,102081.06
2023-05-16T23:32:09.186Z,102086.91
2023-05-16T23:37:13.083Z,102092.38
2023-05-16T23:42:16.028Z,102085.34
2023-05-16T23:47:18.707Z,102090.66
2023-05-16T23:52:22.621Z,102087.66
2023-05-16T23:57:25.263Z,102099.78
